Terminal Aerodrome Forecast
Issued by NWS

Home | Current Version | Previous Version | Text Only | Print | Product List | Glossary On
Versions: 1 2 3 4 5 6 7 8 9 10 11 12 13 14 15 16 17 18 19 20 21 22 23 24
516
FTUS46 KSEW 281736
TAFPAE
TAF
KPAE 281736Z 2818/0118 00000KT 5SM BR BKN060 OVC070
     FM281900 19010KT P6SM BKN035 BKN050
     FM282100 17013G22KT P6SM BKN050
     FM010200 18016G27KT P6SM -RA OVC040
     FM010900 20015G22KT P6SM -RA OVC025
     FM011200 19013KT P6SM OVC025=

USA.gov is the U.S. government's official web portal to all federal, state and local government web resources and services.